METAR AND TAF INFORMATION
METAR FOR OPKC
ADDS - METARS form results

(0944 UTC 24 September 2018)
Data provider http://aviationweather.gov/metar/data/
 
METAR text: OPKC 240925Z 22013KT 6000 FEW020 32/22 Q1008 NOSIG
Conditions at: OPKC (KARACHI INTL ARP, PK) observed 0925 UTC 24 September 2018
Temperature: 32.0°C (90°F)
Dewpoint: 22.0°C (72°F) [RH = 56%]
Pressure (altimeter): 29.76 inches Hg (1008.0 mb)
Winds: from the SW (220 degrees) at 15 MPH (13 knots; 6.7 m/s)
Visibility: 4 miles ( 6 km)
Ceiling: at least 12,000 feet AGL
Clouds: few clouds at 2000 feet AGL
Weather: no significant weather observed at this time

METAR text: OPKC 240853Z 22012KT 6000 FEW020 32/22 Q1008 NOSIG
Conditions at: OPKC (KARACHI INTL ARP, PK) observed 0853 UTC 24 September 2018
Temperature: 32.0°C (90°F)
Dewpoint: 22.0°C (72°F) [RH = 56%]
Pressure (altimeter): 29.76 inches Hg (1008.0 mb)
Winds: from the SW (220 degrees) at 14 MPH (12 knots; 6.2 m/s)
Visibility: 4 miles ( 6 km)
Ceiling: at least 12,000 feet AGL
Clouds: few clouds at 2000 feet AGL
Weather: no significant weather observed at this time

Forecast for: OPKC (KARACHI INTL ARP, PK)
Text: TAF OPKC 240630Z 2409/2418 24008G18KT 6000 SCT030
Forecast period: 0900 to 1800 UTC 24 September 2018
Forecast type: FROM: standard forecast or significant change
Winds: from the WSW (240 degrees) at 9 MPH (8 knots; 4.1 m/s)
gusting to 21 MPH (18 knots; 9.3 m/s)
Visibility: 4 miles (6 km)
Ceiling: at least 12,000 feet AGL
Clouds: scattered clouds at 3000 feet AGL
Weather: no significant weather forecast for this period

 AIRPORT MAP

 RUNWAY INFORMATION
Runway 07L Runway length 10500 ft Runway width 151 ft
Runway elevation 77 ft Runway displaced threshold 0 ft Runway heading 75
Runway 25R Runway length 10500 ft Runway width 151 ft
Runway elevation 100 ft Runway displaced threshold 0 ft Runway heading 255
Runway 07R Runway length 11155 ft Runway width 151 ft
Runway elevation 71 ft Runway displaced threshold 0 ft Runway heading 74
Runway 25L Runway length 11155 ft Runway width 151 ft
Runway elevation 89 ft Runway displaced threshold 0 ft Runway heading 254

 AIRPORT FREQUENCIES
Type APP Name KARACHI AP Frequency 125.5 MHZ
Type ATIS Name ATIS Frequency 126.7 MHZ
Type GND Name KARACHI GN Frequency 121.6 MHZ
Type TWR Name KARACHI TW Frequency 118.3 MHZ

 AIRPORT NEAR NAVIGATION AIDS
Type VOR-DME Name Karachi Frequency 112100 KHZ
Type NDB Name Karachi Frequency 271 KHZ



Copyright © 2011 - 2018 BirgenAir Virtual Airlines. All rights reserved. Developed by Goktug Unver